createdAt,value
2022-08-22T00:01:14.802Z,20.80
2022-08-22T00:02:48.678Z,21.83
2022-08-22T00:03:04.983Z,21.64
2022-08-22T00:03:06.480Z,21.02
2022-08-22T00:03:12.109Z,21.64
2022-08-22T00:04:36.799Z,20.78
2022-08-22T00:08:03.643Z,20.78
2022-08-22T00:11:52.923Z,20.83
2022-08-22T00:15:31.520Z,20.81
2022-08-22T00:18:45.049Z,20.77
2022-08-22T00:21:58.676Z,20.76
2022-08-22T00:25:25.431Z,20.77
2022-08-22T00:28:44.335Z,20.73
2022-08-22T00:31:54.627Z,20.75
2022-08-22T00:35:14.948Z,20.73
2022-08-22T00:38:32.525Z,20.71
2022-08-22T00:42:01.493Z,20.70
2022-08-22T00:45:28.923Z,20.73
2022-08-22T00:48:43.301Z,20.71
2022-08-22T00:52:14.239Z,20.73
2022-08-22T00:55:22.847Z,20.76
2022-08-22T00:58:59.756Z,20.71
2022-08-22T01:02:50.492Z,20.69
2022-08-22T01:06:45.027Z,20.64
2022-08-22T01:10:17.492Z,20.61
2022-08-22T01:13:44.343Z,20.55
2022-08-22T01:16:55.973Z,20.55
2022-08-22T01:20:28.220Z,20.53
2022-08-22T01:24:04.146Z,20.55
2022-08-22T01:27:47.983Z,20.56
2022-08-22T01:31:01.441Z,20.55
2022-08-22T01:34:19.618Z,20.56
2022-08-22T01:37:22.007Z,20.53
2022-08-22T01:40:31.043Z,20.55
2022-08-22T01:44:01.051Z,20.53
2022-08-22T01:47:13.277Z,20.54
2022-08-22T01:50:25.229Z,20.57
2022-08-22T01:53:47.042Z,20.55
2022-08-22T01:56:49.640Z,20.55
2022-08-22T01:59:57.442Z,20.55
2022-08-22T02:03:25.186Z,20.56
2022-08-22T02:06:44.948Z,20.54
2022-08-22T02:10:18.607Z,20.50
2022-08-22T02:13:59.430Z,20.52
2022-08-22T02:17:25.394Z,20.53
2022-08-22T02:20:47.362Z,20.51
2022-08-22T02:23:49.709Z,20.51
2022-08-22T02:27:12.989Z,20.47
2022-08-22T02:30:51.979Z,20.51
2022-08-22T02:34:02.427Z,20.52
2022-08-22T02:37:13.065Z,20.49
2022-08-22T02:40:37.605Z,20.51
2022-08-22T02:43:54.940Z,20.48
2022-08-22T02:47:09.019Z,20.49
2022-08-22T02:50:21.135Z,20.49
2022-08-22T02:53:48.530Z,20.49
2022-08-22T02:57:00.930Z,20.46
2022-08-22T03:00:30.938Z,20.45
2022-08-22T03:03:39.793Z,20.46
2022-08-22T03:07:00.100Z,20.45
2022-08-22T03:10:16.615Z,20.45
2022-08-22T03:13:37.632Z,20.45
2022-08-22T03:16:54.972Z,20.47
2022-08-22T03:20:14.989Z,20.46
2022-08-22T03:23:25.751Z,20.46
2022-08-22T03:26:56.696Z,20.42
2022-08-22T03:30:19.907Z,20.44
2022-08-22T03:33:26.344Z,20.45
2022-08-22T03:36:31.389Z,20.42
2022-08-22T03:40:06.926Z,20.44
2022-08-22T03:43:54.299Z,20.43
2022-08-22T03:47:22.025Z,20.40
2022-08-22T03:50:45.739Z,20.43
2022-08-22T03:54:09.498Z,20.44
2022-08-22T03:57:30.494Z,20.41
2022-08-22T04:00:58.499Z,20.44
2022-08-22T04:04:38.552Z,20.42
2022-08-22T04:08:03.510Z,20.46
2022-08-22T04:11:46.214Z,20.48
2022-08-22T04:15:14.325Z,20.50
2022-08-22T04:18:27.386Z,20.49
2022-08-22T04:21:53.744Z,20.52
2022-08-22T04:25:15.180Z,20.57
2022-08-22T04:28:51.728Z,20.63
2022-08-22T04:32:14.696Z,20.62
2022-08-22T04:35:35.381Z,20.65
2022-08-22T04:38:47.756Z,20.67
2022-08-22T04:42:06.971Z,20.71
2022-08-22T04:45:31.756Z,20.74
2022-08-22T04:48:40.913Z,20.82
2022-08-22T04:52:16.019Z,20.87
2022-08-22T04:55:31.102Z,20.91
2022-08-22T04:58:46.324Z,21.03
2022-08-22T05:01:55.058Z,21.05
2022-08-22T05:05:13.089Z,21.08
2022-08-22T05:08:23.169Z,21.12
2022-08-22T05:11:27.599Z,21.17
2022-08-22T05:14:58.616Z,21.22
2022-08-22T05:18:09.395Z,21.26
2022-08-22T05:21:14.414Z,21.27
2022-08-22T05:24:39.847Z,21.33
2022-08-22T05:27:48.272Z,21.36
2022-08-22T05:30:51.563Z,21.43
2022-08-22T05:34:03.706Z,21.48
2022-08-22T05:37:17.655Z,21.56
2022-08-22T05:40:27.023Z,21.71
2022-08-22T05:43:31.267Z,21.83
2022-08-22T05:46:42.401Z,21.90
2022-08-22T05:50:02.114Z,22.02
2022-08-22T05:53:10.778Z,22.19
2022-08-22T05:56:23.266Z,22.36
2022-08-22T05:59:32.919Z,22.43
2022-08-22T06:02:51.358Z,22.49
2022-08-22T06:05:59.015Z,22.58
2022-08-22T06:09:03.614Z,22.66
2022-08-22T06:12:21.776Z,22.84
2022-08-22T06:15:40.345Z,22.98
2022-08-22T06:18:45.747Z,23.09
2022-08-22T06:21:51.068Z,23.12
2022-08-22T06:25:05.612Z,23.16
2022-08-22T06:28:13.598Z,23.26
2022-08-22T06:31:30.007Z,23.32
2022-08-22T06:34:38.301Z,23.44
2022-08-22T06:37:45.914Z,23.57
2022-08-22T06:40:53.167Z,23.73
2022-08-22T06:43:58.964Z,23.76
2022-08-22T06:47:07.352Z,23.84
2022-08-22T06:50:15.008Z,23.95
2022-08-22T06:53:27.277Z,24.02
2022-08-22T06:56:38.789Z,24.17
2022-08-22T06:59:43.928Z,24.38
2022-08-22T07:02:53.072Z,24.71
2022-08-22T07:05:57.267Z,24.93
2022-08-22T07:09:00.287Z,25.18
2022-08-22T07:12:20.222Z,25.40
2022-08-22T07:15:35.019Z,25.33
2022-08-22T07:18:48.225Z,25.27
2022-08-22T07:21:52.227Z,25.25
2022-08-22T07:25:09.640Z,25.21
2022-08-22T07:28:18.178Z,25.13
2022-08-22T07:31:41.957Z,24.95
2022-08-22T07:35:16.029Z,24.74
2022-08-22T07:38:51.896Z,24.58
2022-08-22T07:42:18.945Z,24.53
2022-08-22T07:45:36.154Z,24.51
2022-08-22T07:49:08.638Z,24.47
2022-08-22T07:52:13.683Z,24.38
2022-08-22T07:55:24.668Z,24.24
2022-08-22T07:58:31.202Z,24.16
2022-08-22T08:01:35.598Z,24.19
2022-08-22T08:04:40.975Z,24.32
2022-08-22T08:07:45.858Z,24.31
2022-08-22T08:10:51.004Z,24.26
2022-08-22T08:13:59.282Z,24.28
2022-08-22T08:17:19.575Z,24.41
2022-08-22T08:20:25.159Z,24.50
2022-08-22T08:23:34.963Z,24.46
2022-08-22T08:27:03.945Z,24.62
2022-08-22T08:30:29.989Z,24.75
2022-08-22T08:33:36.915Z,24.67
2022-08-22T08:37:02.328Z,24.81
2022-08-22T08:40:38.614Z,24.88
2022-08-22T08:44:13.887Z,24.94
2022-08-22T08:47:28.504Z,25.22
2022-08-22T08:51:04.235Z,25.46
2022-08-22T08:54:26.349Z,25.70
2022-08-22T08:57:51.155Z,26.04
2022-08-22T09:01:03.058Z,26.16
2022-08-22T09:04:16.737Z,26.35
2022-08-22T09:08:00.915Z,26.47
2022-08-22T09:11:28.553Z,26.66
2022-08-22T09:14:52.449Z,27.09
2022-08-22T09:18:37.717Z,27.54
2022-08-22T09:21:44.067Z,27.91
2022-08-22T09:24:46.993Z,28.17
2022-08-22T09:28:09.869Z,28.53
2022-08-22T09:31:44.856Z,28.45
2022-08-22T09:35:11.758Z,28.11
2022-08-22T09:38:46.671Z,27.89
2022-08-22T09:42:44.813Z,27.69
2022-08-22T09:46:13.786Z,27.47
2022-08-22T09:49:57.067Z,27.27
2022-08-22T09:53:38.290Z,27.05
2022-08-22T09:57:00.740Z,26.86
2022-08-22T10:00:10.510Z,26.69
2022-08-22T10:03:45.547Z,26.74
2022-08-22T10:07:13.428Z,26.92
2022-08-22T10:10:34.998Z,27.26
2022-08-22T10:14:01.708Z,27.47
2022-08-22T10:17:21.914Z,27.64
2022-08-22T10:20:50.045Z,27.79
2022-08-22T10:24:14.494Z,27.67
2022-08-22T10:27:57.531Z,27.67
2022-08-22T10:31:08.014Z,27.45
2022-08-22T10:34:20.316Z,27.31
2022-08-22T10:37:32.732Z,27.34
2022-08-22T10:40:52.067Z,27.46
2022-08-22T10:44:17.912Z,27.69
2022-08-22T10:47:52.534Z,28.21
2022-08-22T10:51:10.032Z,28.74
2022-08-22T10:54:28.907Z,29.27
2022-08-22T10:57:44.158Z,29.67
2022-08-22T11:00:54.994Z,29.87
2022-08-22T11:04:19.819Z,29.74
2022-08-22T11:07:50.676Z,29.98
2022-08-22T11:11:16.048Z,30.20
2022-08-22T11:14:31.572Z,29.97
2022-08-22T11:17:54.527Z,29.68
2022-08-22T11:21:00.960Z,29.52
2022-08-22T11:25:04.714Z,29.33
2022-08-22T11:28:26.197Z,29.33
2022-08-22T11:32:06.225Z,29.56
2022-08-22T11:35:26.158Z,29.56
2022-08-22T11:38:53.949Z,30.01
2022-08-22T11:42:13.584Z,30.72
2022-08-22T11:45:25.680Z,31.35
2022-08-22T11:48:51.326Z,31.95
2022-08-22T11:52:13.341Z,32.59
2022-08-22T11:55:34.671Z,32.59
2022-08-22T11:59:10.479Z,32.12
2022-08-22T12:02:27.100Z,31.42
2022-08-22T12:05:41.494Z,30.69
2022-08-22T12:08:49.463Z,30.16
2022-08-22T12:12:31.020Z,29.60
2022-08-22T12:15:39.496Z,29.26
2022-08-22T12:19:19.509Z,28.96
2022-08-22T12:22:50.022Z,28.68
2022-08-22T12:26:04.919Z,28.47
2022-08-22T12:29:34.128Z,28.24
2022-08-22T12:33:10.304Z,28.26
2022-08-22T12:36:34.321Z,28.31
2022-08-22T12:39:44.011Z,28.38
2022-08-22T12:42:57.423Z,28.51
2022-08-22T12:46:13.094Z,28.38
2022-08-22T12:49:57.395Z,28.22
2022-08-22T12:53:09.268Z,28.11
2022-08-22T12:56:31.573Z,27.98
2022-08-22T12:59:41.675Z,27.94
2022-08-22T13:02:45.375Z,27.90
2022-08-22T13:05:56.261Z,27.71
2022-08-22T13:09:11.074Z,27.50
2022-08-22T13:12:25.719Z,27.36
2022-08-22T13:15:31.917Z,27.11
2022-08-22T13:18:47.320Z,26.67
2022-08-22T13:22:11.809Z,26.05
2022-08-22T13:25:25.452Z,25.91
2022-08-22T13:28:31.881Z,25.89
2022-08-22T13:31:38.810Z,25.92
2022-08-22T13:34:50.589Z,25.82
2022-08-22T13:38:03.291Z,25.57
2022-08-22T13:41:08.952Z,25.53
2022-08-22T13:44:31.450Z,25.41
2022-08-22T13:47:45.704Z,25.67
2022-08-22T13:51:03.696Z,25.84
2022-08-22T13:54:11.106Z,25.93
2022-08-22T13:57:17.830Z,25.68
2022-08-22T14:00:28.652Z,25.48
2022-08-22T14:03:49.101Z,25.56
2022-08-22T14:06:56.682Z,25.40
2022-08-22T14:10:20.181Z,25.52
2022-08-22T14:13:44.727Z,25.49
2022-08-22T14:16:52.059Z,25.41
2022-08-22T14:20:02.167Z,25.18
2022-08-22T14:23:27.295Z,25.13
2022-08-22T14:26:37.267Z,24.85
2022-08-22T14:29:55.166Z,24.72
2022-08-22T14:33:20.823Z,24.59
2022-08-22T14:36:29.666Z,24.54
2022-08-22T14:39:48.033Z,24.59
2022-08-22T14:43:15.280Z,24.54
2022-08-22T14:46:33.928Z,24.42
2022-08-22T14:49:55.444Z,24.32
2022-08-22T14:53:25.117Z,24.27
2022-08-22T14:56:30.092Z,24.26
2022-08-22T14:59:37.071Z,24.46
2022-08-22T15:02:41.111Z,24.46
2022-08-22T15:06:21.866Z,24.74
2022-08-22T15:09:40.538Z,24.87
2022-08-22T15:12:51.472Z,25.06
2022-08-22T15:15:59.795Z,25.28
2022-08-22T15:19:23.048Z,25.32
2022-08-22T15:22:28.004Z,25.41
2022-08-22T15:25:35.234Z,25.51
2022-08-22T15:28:52.494Z,25.52
2022-08-22T15:32:01.089Z,25.51
2022-08-22T15:35:11.548Z,25.42
2022-08-22T15:38:28.539Z,25.35
2022-08-22T15:41:36.249Z,25.32
2022-08-22T15:44:44.230Z,25.30
2022-08-22T15:47:52.095Z,25.10
2022-08-22T15:51:10.391Z,25.00
2022-08-22T15:54:35.954Z,24.73
2022-08-22T15:57:47.480Z,24.65
2022-08-22T16:01:19.783Z,24.50
2022-08-22T16:04:37.627Z,24.43
2022-08-22T16:07:46.014Z,24.43
2022-08-22T16:11:24.158Z,24.36
2022-08-22T16:14:32.927Z,24.28
2022-08-22T16:17:43.189Z,24.27
2022-08-22T16:20:51.901Z,24.27
2022-08-22T16:23:56.382Z,24.25
2022-08-22T16:27:14.496Z,24.21
2022-08-22T16:30:32.720Z,24.18
2022-08-22T16:33:40.651Z,24.17
2022-08-22T16:36:49.529Z,24.17
2022-08-22T16:40:01.657Z,24.09
2022-08-22T16:43:19.949Z,24.02
2022-08-22T16:46:33.205Z,23.90
2022-08-22T16:49:55.738Z,23.82
2022-08-22T16:53:10.326Z,23.77
2022-08-22T16:56:35.058Z,23.73
2022-08-22T16:59:55.576Z,23.63
2022-08-22T17:03:23.445Z,23.49
2022-08-22T17:06:50.779Z,23.45
2022-08-22T17:10:10.212Z,23.47
2022-08-22T17:13:20.636Z,23.38
2022-08-22T17:16:41.279Z,23.33
2022-08-22T17:20:05.617Z,23.36
2022-08-22T17:23:42.098Z,23.24
2022-08-22T17:26:57.793Z,23.18
2022-08-22T17:30:12.121Z,23.16
2022-08-22T17:33:28.527Z,23.11
2022-08-22T17:36:39.395Z,23.04
2022-08-22T17:39:56.529Z,22.97
2022-08-22T17:43:14.999Z,22.94
2022-08-22T17:46:35.811Z,22.91
2022-08-22T17:49:41.400Z,22.84
2022-08-22T17:52:55.537Z,22.78
2022-08-22T17:56:14.196Z,22.73
2022-08-22T17:59:26.358Z,22.70
2022-08-22T18:02:39.365Z,22.70
2022-08-22T18:06:09.303Z,22.67
2022-08-22T18:09:25.816Z,22.63
2022-08-22T18:12:44.712Z,22.60
2022-08-22T18:15:52.196Z,22.56
2022-08-22T18:18:57.693Z,22.58
2022-08-22T18:22:07.825Z,22.54
2022-08-22T18:25:20.020Z,22.44
2022-08-22T18:28:34.130Z,22.39
2022-08-22T18:32:17.431Z,22.38
2022-08-22T18:35:49.850Z,22.33
2022-08-22T18:39:22.036Z,22.24
2022-08-22T18:42:35.170Z,22.21
2022-08-22T18:45:47.086Z,22.21
2022-08-22T18:49:14.251Z,22.17
2022-08-22T18:52:18.535Z,22.09
2022-08-22T18:55:51.660Z,22.08
2022-08-22T18:59:13.005Z,22.08
2022-08-22T19:02:41.349Z,22.11
2022-08-22T19:06:09.350Z,22.17
2022-08-22T19:09:32.153Z,22.13
2022-08-22T19:12:50.141Z,22.17
2022-08-22T19:16:25.306Z,22.10
2022-08-22T19:20:02.183Z,22.00
2022-08-22T19:23:33.972Z,21.97
2022-08-22T19:26:43.881Z,21.95
2022-08-22T19:29:46.303Z,21.96
2022-08-22T19:32:49.991Z,22.00
2022-08-22T19:35:52.568Z,22.05
2022-08-22T19:39:09.122Z,22.08
2022-08-22T19:42:27.683Z,22.02
2022-08-22T19:45:32.310Z,22.02
2022-08-22T19:48:44.585Z,21.91
2022-08-22T19:51:59.736Z,21.94
2022-08-22T19:55:08.834Z,21.89
2022-08-22T19:58:41.049Z,21.87
2022-08-22T20:01:51.214Z,21.93
2022-08-22T20:05:03.546Z,21.91
2022-08-22T20:08:11.558Z,21.90
2022-08-22T20:12:02.753Z,21.86
2022-08-22T20:15:26.793Z,21.76
2022-08-22T20:19:06.612Z,21.72
2022-08-22T20:22:24.356Z,21.70
2022-08-22T20:25:50.314Z,21.70
2022-08-22T20:28:54.236Z,21.67
2022-08-22T20:31:59.065Z,21.65
2022-08-22T20:35:05.624Z,21.63
2022-08-22T20:38:16.834Z,21.66
2022-08-22T20:41:22.534Z,21.68
2022-08-22T20:44:28.553Z,21.66
2022-08-22T20:47:41.138Z,21.63
2022-08-22T20:50:44.764Z,21.59
2022-08-22T20:54:02.300Z,21.61
2022-08-22T20:57:19.293Z,21.61
2022-08-22T21:00:41.119Z,21.61
2022-08-22T21:03:50.882Z,21.62
2022-08-22T21:07:02.297Z,21.59
2022-08-22T21:10:42.916Z,21.59
2022-08-22T21:13:49.086Z,21.56
2022-08-22T21:16:53.215Z,21.54
2022-08-22T21:19:57.932Z,21.56
2022-08-22T21:23:08.838Z,21.55
2022-08-22T21:26:28.808Z,21.50
2022-08-22T21:29:42.219Z,21.51
2022-08-22T21:32:52.294Z,21.49
2022-08-22T21:35:59.561Z,21.48
2022-08-22T21:39:12.631Z,21.49
2022-08-22T21:42:26.772Z,21.46
2022-08-22T21:45:34.297Z,21.46
2022-08-22T21:49:02.786Z,21.46
2022-08-22T21:52:05.301Z,21.44
2022-08-22T21:55:38.895Z,21.42
2022-08-22T21:58:42.280Z,21.38
2022-08-22T22:01:47.230Z,21.37
2022-08-22T22:04:50.216Z,21.37
2022-08-22T22:07:52.846Z,21.37
2022-08-22T22:11:01.290Z,21.36
2022-08-22T22:14:04.100Z,21.36
2022-08-22T22:17:06.845Z,21.36
2022-08-22T22:20:10.051Z,21.37
2022-08-22T22:23:12.969Z,21.39
2022-08-22T22:26:15.515Z,21.36
2022-08-22T22:29:19.376Z,21.33
2022-08-22T22:32:22.437Z,21.31
2022-08-22T22:35:25.300Z,21.35
2022-08-22T22:38:27.939Z,21.41
2022-08-22T22:41:30.796Z,21.41
2022-08-22T22:44:33.523Z,21.40
2022-08-22T22:47:37.627Z,21.39
2022-08-22T22:50:40.684Z,21.35
2022-08-22T22:53:44.900Z,21.32
2022-08-22T22:56:48.031Z,21.33
2022-08-22T22:59:51.144Z,21.32
2022-08-22T23:02:53.707Z,21.29
2022-08-22T23:05:56.311Z,21.27
2022-08-22T23:08:59.020Z,21.27
2022-08-22T23:12:03.190Z,21.26
2022-08-22T23:15:08.254Z,21.26
2022-08-22T23:18:11.087Z,21.28
2022-08-22T23:21:19.918Z,21.28
2022-08-22T23:24:24.001Z,21.25
2022-08-22T23:27:26.687Z,21.22
2022-08-22T23:30:30.309Z,21.20
2022-08-22T23:33:35.227Z,21.16
2022-08-22T23:36:39.534Z,21.18
2022-08-22T23:39:42.971Z,21.19
2022-08-22T23:42:45.782Z,21.19
2022-08-22T23:45:48.468Z,21.15
2022-08-22T23:48:51.573Z,21.15
2022-08-22T23:51:54.778Z,21.13
2022-08-22T23:54:57.599Z,21.11
2022-08-22T23:58:00.405Z,21.06
